createdAt,value
2023-02-18T00:00:23.997Z,55.76
2023-02-18T00:02:52.600Z,54.87
2023-02-18T00:05:19.406Z,54.72
2023-02-18T00:07:45.932Z,54.96
2023-02-18T00:10:14.942Z,55.42
2023-02-18T00:12:42.002Z,55.11
2023-02-18T00:15:09.129Z,55.39
2023-02-18T00:17:35.982Z,55.47
2023-02-18T00:20:04.831Z,55.29
2023-02-18T00:22:31.509Z,55.09
2023-02-18T00:24:58.006Z,54.92
2023-02-18T00:27:24.512Z,55.67
2023-02-18T00:29:51.029Z,55.18
2023-02-18T00:32:17.693Z,55.47
2023-02-18T00:34:44.165Z,55.39
2023-02-18T00:37:10.678Z,55.07
2023-02-18T00:39:37.292Z,55.01
2023-02-18T00:42:03.924Z,55.43
2023-02-18T00:44:30.445Z,54.96
2023-02-18T00:46:56.923Z,54.83
2023-02-18T00:49:23.522Z,56.23
2023-02-18T00:51:50.086Z,56.20
2023-02-18T00:54:16.556Z,55.42
2023-02-18T00:56:43.069Z,54.99
2023-02-18T00:59:09.570Z,55.41
2023-02-18T01:01:36.129Z,55.53
2023-02-18T01:04:02.681Z,55.66
2023-02-18T01:06:29.184Z,55.37
2023-02-18T01:08:55.977Z,55.75
2023-02-18T01:11:22.473Z,55.38
2023-02-18T01:13:49.003Z,55.08
2023-02-18T01:16:15.601Z,55.73
2023-02-18T01:18:42.101Z,56.16
2023-02-18T01:21:10.214Z,56.15
2023-02-18T01:23:39.523Z,55.72
2023-02-18T01:26:07.314Z,56.44
2023-02-18T01:28:34.204Z,55.76
2023-02-18T01:31:07.363Z,55.77
2023-02-18T01:33:33.966Z,56.38
2023-02-18T01:36:00.490Z,56.03
2023-02-18T01:38:27.017Z,55.91
2023-02-18T01:40:54.198Z,55.90
2023-02-18T01:43:20.789Z,55.53
2023-02-18T01:46:02.613Z,55.68
2023-02-18T01:48:32.889Z,55.71
2023-02-18T01:51:07.285Z,55.89
2023-02-18T01:54:03.169Z,56.05
2023-02-18T01:56:55.865Z,55.67
2023-02-18T01:59:38.613Z,56.05
2023-02-18T02:02:10.776Z,55.55
2023-02-18T02:04:37.374Z,55.75
2023-02-18T02:07:04.101Z,55.50
2023-02-18T02:09:33.973Z,55.56
2023-02-18T02:12:09.474Z,55.68
2023-02-18T02:14:54.881Z,55.83
2023-02-18T02:17:41.338Z,55.87
2023-02-18T02:20:30.445Z,55.49
2023-02-18T02:23:18.194Z,55.68
2023-02-18T02:25:56.478Z,55.88
2023-02-18T02:28:27.866Z,55.24
2023-02-18T02:31:05.536Z,56.08
2023-02-18T02:33:59.365Z,55.45
2023-02-18T02:36:44.721Z,55.34
2023-02-18T02:39:25.894Z,54.95
2023-02-18T02:42:00.194Z,55.50
2023-02-18T02:44:41.099Z,54.89
2023-02-18T02:47:26.204Z,55.17
2023-02-18T02:50:06.383Z,55.13
2023-02-18T02:52:41.169Z,55.10
2023-02-18T02:55:12.330Z,55.16
2023-02-18T02:57:46.437Z,54.03
2023-02-18T03:00:16.913Z,53.97
2023-02-18T03:03:14.741Z,53.22
2023-02-18T03:06:13.480Z,53.22
2023-02-18T03:09:16.678Z,52.99
2023-02-18T03:11:58.430Z,52.47
2023-02-18T03:14:32.743Z,51.47
2023-02-18T03:17:32.653Z,51.36
2023-02-18T03:20:08.140Z,50.32
2023-02-18T03:22:41.634Z,50.17
2023-02-18T03:25:10.328Z,49.93
2023-02-18T03:27:52.885Z,49.90
2023-02-18T03:30:34.917Z,49.98
2023-02-18T03:33:09.299Z,49.98
2023-02-18T03:35:38.404Z,49.86
2023-02-18T03:38:16.550Z,50.26
2023-02-18T03:40:43.261Z,50.34
2023-02-18T03:43:09.901Z,50.46
2023-02-18T03:45:36.634Z,50.21
2023-02-18T03:48:03.371Z,50.53
2023-02-18T03:50:29.860Z,50.54
2023-02-18T03:52:56.427Z,51.03
2023-02-18T03:55:22.916Z,51.13
2023-02-18T03:57:49.516Z,50.72
2023-02-18T04:00:16.199Z,50.97
2023-02-18T04:02:42.822Z,50.90
2023-02-18T04:05:10.591Z,51.56
2023-02-18T04:07:37.115Z,51.07
2023-02-18T04:10:05.886Z,50.68
2023-02-18T04:12:52.366Z,50.30
2023-02-18T04:15:18.989Z,50.73
2023-02-18T04:17:45.501Z,50.35
2023-02-18T04:20:12.252Z,50.16
2023-02-18T04:22:38.814Z,50.71
2023-02-18T04:25:05.525Z,50.74
2023-02-18T04:27:32.575Z,50.81
2023-02-18T04:29:59.344Z,51.00
2023-02-18T04:32:25.829Z,50.76
2023-02-18T04:34:52.549Z,50.97
2023-02-18T04:37:19.036Z,51.13
2023-02-18T04:39:45.515Z,50.99
2023-02-18T04:42:11.989Z,51.48
2023-02-18T04:44:38.802Z,51.29
2023-02-18T04:47:06.859Z,52.00
2023-02-18T04:49:34.321Z,51.96
2023-02-18T04:52:00.901Z,51.77
2023-02-18T04:54:27.403Z,52.03
2023-02-18T04:56:54.360Z,52.15
2023-02-18T04:59:21.080Z,52.31
2023-02-18T05:01:47.634Z,52.39
2023-02-18T05:04:14.242Z,51.70
2023-02-18T05:06:40.792Z,51.82
2023-02-18T05:09:07.379Z,51.85
2023-02-18T05:11:33.960Z,51.93
2023-02-18T05:14:00.488Z,51.88
2023-02-18T05:16:27.085Z,52.67
2023-02-18T05:18:53.705Z,51.88
2023-02-18T05:21:20.241Z,51.57
2023-02-18T05:23:46.736Z,51.46
2023-02-18T05:26:13.355Z,51.41
2023-02-18T05:28:39.947Z,50.86
2023-02-18T05:31:06.561Z,50.80
2023-02-18T05:33:33.138Z,50.17
2023-02-18T05:35:59.706Z,50.82
2023-02-18T05:38:26.175Z,51.30
2023-02-18T05:40:52.823Z,51.43
2023-02-18T05:43:19.316Z,51.84
2023-02-18T05:45:45.895Z,52.21
2023-02-18T05:48:12.424Z,52.40
2023-02-18T05:50:39.374Z,52.52
2023-02-18T05:53:05.892Z,53.22
2023-02-18T05:55:32.379Z,53.30
2023-02-18T05:57:58.975Z,54.32
2023-02-18T06:00:25.539Z,54.42
2023-02-18T06:02:52.119Z,54.77
2023-02-18T06:05:18.709Z,54.70
2023-02-18T06:07:45.237Z,54.34
2023-02-18T06:10:11.713Z,54.33
2023-02-18T06:12:38.211Z,54.28
2023-02-18T06:15:05.089Z,53.88
2023-02-18T06:17:31.663Z,53.58
2023-02-18T06:19:58.172Z,53.35
2023-02-18T06:22:24.798Z,53.33
2023-02-18T06:24:51.294Z,53.24
2023-02-18T06:27:17.934Z,52.76
2023-02-18T06:29:44.466Z,52.83
2023-02-18T06:32:11.098Z,52.28
2023-02-18T06:34:37.674Z,51.98
2023-02-18T06:37:04.225Z,52.03
2023-02-18T06:39:32.165Z,51.99
2023-02-18T06:41:58.663Z,51.88
2023-02-18T06:44:25.207Z,52.33
2023-02-18T06:46:51.762Z,51.91
2023-02-18T06:49:18.510Z,51.71
2023-02-18T06:51:45.023Z,51.83
2023-02-18T06:54:11.550Z,51.98
2023-02-18T06:56:38.607Z,52.18
2023-02-18T06:59:05.171Z,52.13
2023-02-18T07:01:31.677Z,52.27
2023-02-18T07:03:58.243Z,52.19
2023-02-18T07:06:24.747Z,52.70
2023-02-18T07:08:51.224Z,52.35
2023-02-18T07:11:17.850Z,52.64
2023-02-18T07:13:44.381Z,52.92
2023-02-18T07:16:11.652Z,53.21
2023-02-18T07:18:38.412Z,53.01
2023-02-18T07:21:05.027Z,53.00
2023-02-18T07:23:31.653Z,52.93
2023-02-18T07:26:06.789Z,52.83
2023-02-18T07:28:33.432Z,52.62
2023-02-18T07:31:00.139Z,52.40
2023-02-18T07:33:26.666Z,52.72
2023-02-18T07:35:54.997Z,52.41
2023-02-18T07:38:21.953Z,52.14
2023-02-18T07:40:48.541Z,51.35
2023-02-18T07:43:15.069Z,50.88
2023-02-18T07:45:41.634Z,50.68
2023-02-18T07:48:08.335Z,50.50
2023-02-18T07:50:34.840Z,50.00
2023-02-18T07:53:01.673Z,49.52
2023-02-18T07:55:28.170Z,49.57
2023-02-18T07:57:54.639Z,48.87
2023-02-18T08:00:21.231Z,48.76
2023-02-18T08:02:47.763Z,48.17
2023-02-18T08:05:14.242Z,48.38
2023-02-18T08:07:40.742Z,48.25
2023-02-18T08:10:07.675Z,47.54
2023-02-18T08:12:34.169Z,47.31
2023-02-18T08:15:00.631Z,47.77
2023-02-18T08:17:27.110Z,47.37
2023-02-18T08:19:53.609Z,47.28
2023-02-18T08:22:20.209Z,46.98
2023-02-18T08:24:46.745Z,46.95
2023-02-18T08:27:13.260Z,47.74
2023-02-18T08:29:39.772Z,47.37
2023-02-18T08:32:06.343Z,47.86
2023-02-18T08:34:33.013Z,47.78
2023-02-18T08:37:01.874Z,47.84
2023-02-18T08:39:28.408Z,47.55
2023-02-18T08:41:56.644Z,47.78
2023-02-18T08:44:23.103Z,48.48
2023-02-18T08:46:49.642Z,48.07
2023-02-18T08:49:16.994Z,48.03
2023-02-18T08:51:43.558Z,46.99
2023-02-18T08:54:10.055Z,46.65
2023-02-18T08:56:36.594Z,46.86
2023-02-18T08:59:03.113Z,46.93
2023-02-18T09:01:29.696Z,46.67
2023-02-18T09:04:02.256Z,46.23
2023-02-18T09:06:28.761Z,46.58
2023-02-18T09:08:55.741Z,46.59
2023-02-18T09:11:22.229Z,46.50
2023-02-18T09:13:48.724Z,46.90
2023-02-18T09:16:18.459Z,46.89
2023-02-18T09:18:46.888Z,46.71
2023-02-18T09:21:15.517Z,46.73
2023-02-18T09:23:42.642Z,46.89
2023-02-18T09:26:13.959Z,46.61
2023-02-18T09:28:40.716Z,46.07
2023-02-18T09:31:11.985Z,46.21
2023-02-18T09:33:41.588Z,45.58
2023-02-18T09:36:08.953Z,45.33
2023-02-18T09:38:35.582Z,45.88
2023-02-18T09:41:08.934Z,46.16
2023-02-18T09:43:43.465Z,45.53
2023-02-18T09:46:21.769Z,45.93
2023-02-18T09:48:48.939Z,45.61
2023-02-18T09:51:17.282Z,46.19
2023-02-18T09:53:45.413Z,46.49
2023-02-18T09:56:20.321Z,46.44
2023-02-18T09:58:49.463Z,46.96
2023-02-18T10:01:32.626Z,46.60
2023-02-18T10:04:07.041Z,46.54
2023-02-18T10:06:35.255Z,46.40
2023-02-18T10:09:16.378Z,45.54
2023-02-18T10:11:47.142Z,45.30
2023-02-18T10:14:15.538Z,45.46
2023-02-18T10:16:45.416Z,45.03
2023-02-18T10:19:33.052Z,44.65
2023-02-18T10:22:06.515Z,43.80
2023-02-18T10:24:42.784Z,44.15
2023-02-18T10:27:13.547Z,44.29
2023-02-18T10:29:40.283Z,43.73
2023-02-18T10:32:23.017Z,44.65
2023-02-18T10:35:02.805Z,45.03
2023-02-18T10:37:54.143Z,44.60
2023-02-18T10:40:53.527Z,44.72
2023-02-18T10:43:32.616Z,44.43
2023-02-18T10:46:20.547Z,44.80
2023-02-18T10:49:08.207Z,44.91
2023-02-18T10:51:39.753Z,44.19
2023-02-18T10:54:07.046Z,45.14
2023-02-18T10:56:35.280Z,44.55
2023-02-18T10:59:11.820Z,44.96
2023-02-18T11:01:39.957Z,45.69
2023-02-18T11:04:16.939Z,45.94
2023-02-18T11:06:48.178Z,46.83
2023-02-18T11:09:28.281Z,45.40
2023-02-18T11:12:08.794Z,45.85
2023-02-18T11:14:45.250Z,45.68
2023-02-18T11:17:20.401Z,45.43
2023-02-18T11:19:57.130Z,45.22
2023-02-18T11:22:34.068Z,45.20
2023-02-18T11:25:03.626Z,45.73
2023-02-18T11:27:44.428Z,45.85
2023-02-18T11:30:26.622Z,44.47
2023-02-18T11:32:59.825Z,44.66
2023-02-18T11:35:31.872Z,45.30
2023-02-18T11:38:02.253Z,43.75
2023-02-18T11:40:33.781Z,43.27
2023-02-18T11:43:05.296Z,44.22
2023-02-18T11:45:33.648Z,44.39
2023-02-18T11:48:23.989Z,44.39
2023-02-18T11:50:53.657Z,44.26
2023-02-18T11:53:33.521Z,44.22
2023-02-18T11:56:19.440Z,44.23
2023-02-18T11:58:48.658Z,44.70
2023-02-18T12:01:45.420Z,45.57
2023-02-18T12:04:18.404Z,46.63
2023-02-18T12:06:54.021Z,46.71
2023-02-18T12:09:40.304Z,47.60
2023-02-18T12:12:18.755Z,47.80
2023-02-18T12:14:45.444Z,49.17
2023-02-18T12:17:40.067Z,48.05
2023-02-18T12:20:14.707Z,47.83
2023-02-18T12:22:45.424Z,49.15
2023-02-18T12:25:31.598Z,48.85
2023-02-18T12:28:19.677Z,48.54
2023-02-18T12:30:52.148Z,47.80
2023-02-18T12:33:18.533Z,49.29
2023-02-18T12:36:12.308Z,49.01
2023-02-18T12:38:57.510Z,47.74
2023-02-18T12:41:42.433Z,47.59
2023-02-18T12:44:31.289Z,46.68
2023-02-18T12:47:38.676Z,47.37
2023-02-18T12:50:32.957Z,48.05
2023-02-18T12:53:08.272Z,47.55
2023-02-18T12:55:55.348Z,47.68
2023-02-18T12:58:30.527Z,46.60
2023-02-18T13:01:06.137Z,46.33
2023-02-18T13:03:49.422Z,46.67
2023-02-18T13:06:48.451Z,46.29
2023-02-18T13:09:29.351Z,46.27
2023-02-18T13:12:21.652Z,46.61
2023-02-18T13:14:53.881Z,45.98
2023-02-18T13:17:22.174Z,45.68
2023-02-18T13:19:59.377Z,45.89
2023-02-18T13:22:29.899Z,45.42
2023-02-18T13:24:59.016Z,45.35
2023-02-18T13:27:53.904Z,45.16
2023-02-18T13:30:48.197Z,44.69
2023-02-18T13:33:29.629Z,46.28
2023-02-18T13:36:09.893Z,45.17
2023-02-18T13:39:06.289Z,45.44
2023-02-18T13:41:38.629Z,44.93
2023-02-18T13:44:23.344Z,44.74
2023-02-18T13:46:53.528Z,44.54
2023-02-18T13:49:36.767Z,43.63
2023-02-18T13:52:05.253Z,43.20
2023-02-18T13:54:41.996Z,42.08
2023-02-18T13:57:26.796Z,42.64
2023-02-18T14:00:05.397Z,42.65
2023-02-18T14:02:35.547Z,42.51
2023-02-18T14:05:07.965Z,41.97
2023-02-18T14:07:34.399Z,41.75
2023-02-18T14:10:03.490Z,40.73
2023-02-18T14:12:40.453Z,41.05
2023-02-18T14:15:18.830Z,40.58
2023-02-18T14:17:49.096Z,39.80
2023-02-18T14:20:21.643Z,38.87
2023-02-18T14:22:50.666Z,38.17
2023-02-18T14:25:20.069Z,37.81
2023-02-18T14:27:50.884Z,36.95
2023-02-18T14:30:38.835Z,36.08
2023-02-18T14:33:06.071Z,35.47
2023-02-18T14:35:46.579Z,34.87
2023-02-18T14:38:28.034Z,33.97
2023-02-18T14:41:10.101Z,33.28
2023-02-18T14:43:45.767Z,32.90
2023-02-18T14:46:25.318Z,32.38
2023-02-18T14:49:01.990Z,32.40
2023-02-18T14:51:32.392Z,32.28
2023-02-18T14:54:06.462Z,31.61
2023-02-18T14:56:39.258Z,31.36
2023-02-18T14:59:07.134Z,30.96
2023-02-18T15:01:35.419Z,30.66
2023-02-18T15:04:03.349Z,30.84
2023-02-18T15:06:38.324Z,30.90
2023-02-18T15:09:15.243Z,30.43
2023-02-18T15:11:51.908Z,30.41
2023-02-18T15:14:24.157Z,30.45
2023-02-18T15:16:52.044Z,30.45
2023-02-18T15:19:26.726Z,30.33
2023-02-18T15:21:56.592Z,29.93
2023-02-18T15:24:33.649Z,29.92
2023-02-18T15:27:05.416Z,29.83
2023-02-18T15:29:36.255Z,30.75
2023-02-18T15:32:16.450Z,30.46
2023-02-18T15:34:44.376Z,30.29
2023-02-18T15:37:14.198Z,30.60
2023-02-18T15:39:42.672Z,30.48
2023-02-18T15:42:19.149Z,30.64
2023-02-18T15:44:53.443Z,30.56
2023-02-18T15:47:21.505Z,30.66
2023-02-18T15:49:54.311Z,30.98
2023-02-18T15:52:30.763Z,30.53
2023-02-18T15:55:12.969Z,30.27
2023-02-18T15:57:40.200Z,30.50
2023-02-18T16:00:18.893Z,30.63
2023-02-18T16:03:02.929Z,30.90
2023-02-18T16:05:29.701Z,31.12
2023-02-18T16:08:13.424Z,32.10
2023-02-18T16:10:47.163Z,32.77
2023-02-18T16:13:17.528Z,32.91
2023-02-18T16:15:49.057Z,33.12
2023-02-18T16:18:31.042Z,32.96
2023-02-18T16:21:02.809Z,33.53
2023-02-18T16:23:42.657Z,34.10
2023-02-18T16:26:27.582Z,35.02
2023-02-18T16:28:55.251Z,35.58
2023-02-18T16:31:22.605Z,36.22
2023-02-18T16:33:49.611Z,36.61
2023-02-18T16:36:16.853Z,37.20
2023-02-18T16:38:45.287Z,37.93
2023-02-18T16:41:14.268Z,38.37
2023-02-18T16:43:41.130Z,39.11
2023-02-18T16:46:21.005Z,39.08
2023-02-18T16:48:52.150Z,39.63
2023-02-18T16:51:29.720Z,40.04
2023-02-18T16:53:59.297Z,40.18
2023-02-18T16:56:30.625Z,40.85
2023-02-18T16:58:57.099Z,41.37
2023-02-18T17:01:28.360Z,41.04
2023-02-18T17:03:55.226Z,42.12
2023-02-18T17:06:21.946Z,42.58
2023-02-18T17:08:48.544Z,43.13
2023-02-18T17:11:22.568Z,43.48
2023-02-18T17:13:50.296Z,43.42
2023-02-18T17:16:17.506Z,44.40
2023-02-18T17:18:45.035Z,44.99
2023-02-18T17:21:14.343Z,44.39
2023-02-18T17:23:41.510Z,45.04
2023-02-18T17:26:25.443Z,45.37
2023-02-18T17:28:54.334Z,46.46
2023-02-18T17:31:33.685Z,46.54
2023-02-18T17:34:05.904Z,46.60
2023-02-18T17:36:32.578Z,47.16
2023-02-18T17:39:01.562Z,47.12
2023-02-18T17:41:28.989Z,47.56
2023-02-18T17:43:55.449Z,48.37
2023-02-18T17:46:22.030Z,47.94
2023-02-18T17:48:48.585Z,48.53
2023-02-18T17:51:26.855Z,48.89
2023-02-18T17:53:53.407Z,49.17
2023-02-18T17:56:20.339Z,49.28
2023-02-18T17:58:46.942Z,49.39
2023-02-18T18:01:13.485Z,49.66
2023-02-18T18:03:39.975Z,50.30
2023-02-18T18:06:18.205Z,49.74
2023-02-18T18:08:45.600Z,50.12
2023-02-18T18:11:23.803Z,50.58
2023-02-18T18:13:51.449Z,50.44
2023-02-18T18:16:20.200Z,50.52
2023-02-18T18:18:46.877Z,50.71
2023-02-18T18:21:32.463Z,50.99
2023-02-18T18:23:59.032Z,51.21
2023-02-18T18:26:26.077Z,51.40
2023-02-18T18:28:52.727Z,51.72
2023-02-18T18:31:21.063Z,51.52
2023-02-18T18:33:49.855Z,51.55
2023-02-18T18:36:17.333Z,51.74
2023-02-18T18:38:43.823Z,51.87
2023-02-18T18:41:16.527Z,52.29
2023-02-18T18:43:43.382Z,52.21
2023-02-18T18:46:10.221Z,52.83
2023-02-18T18:48:36.914Z,53.01
2023-02-18T18:51:03.983Z,53.07
2023-02-18T18:53:35.260Z,53.20
2023-02-18T18:56:05.425Z,52.85
2023-02-18T18:58:32.410Z,53.38
2023-02-18T19:01:02.004Z,53.97
2023-02-18T19:03:30.263Z,53.91
2023-02-18T19:05:57.476Z,53.94
2023-02-18T19:08:24.180Z,53.80
2023-02-18T19:10:54.255Z,54.00
2023-02-18T19:13:26.625Z,53.64
2023-02-18T19:16:04.326Z,54.72
2023-02-18T19:18:30.969Z,54.00
2023-02-18T19:20:57.643Z,54.35
2023-02-18T19:23:24.220Z,54.22
2023-02-18T19:25:50.981Z,54.10
2023-02-18T19:28:19.406Z,54.78
2023-02-18T19:30:47.061Z,54.22
2023-02-18T19:33:15.307Z,54.62
2023-02-18T19:35:43.202Z,54.27
2023-02-18T19:38:13.642Z,54.77
2023-02-18T19:40:41.130Z,55.05
2023-02-18T19:43:07.761Z,54.85
2023-02-18T19:45:35.159Z,55.23
2023-02-18T19:48:01.900Z,55.63
2023-02-18T19:50:29.486Z,55.33
2023-02-18T19:52:57.464Z,55.12
2023-02-18T19:55:23.992Z,55.05
2023-02-18T19:57:51.764Z,55.63
2023-02-18T20:00:21.092Z,56.16
2023-02-18T20:02:48.408Z,55.78
2023-02-18T20:05:15.124Z,56.16
2023-02-18T20:07:42.452Z,56.34
2023-02-18T20:10:13.831Z,55.62
2023-02-18T20:12:40.419Z,55.96
2023-02-18T20:15:07.246Z,56.05
2023-02-18T20:17:33.874Z,56.08
2023-02-18T20:20:00.360Z,56.35
2023-02-18T20:22:26.866Z,55.80
2023-02-18T20:24:53.326Z,56.61
2023-02-18T20:27:19.907Z,56.49
2023-02-18T20:29:46.439Z,55.56
2023-02-18T20:32:12.968Z,56.54
2023-02-18T20:34:39.480Z,56.65
2023-02-18T20:37:05.952Z,56.02
2023-02-18T20:39:32.461Z,56.92
2023-02-18T20:42:02.911Z,56.83
2023-02-18T20:44:31.910Z,56.61
2023-02-18T20:47:01.456Z,56.01
2023-02-18T20:49:27.958Z,55.75
2023-02-18T20:51:54.479Z,56.32
2023-02-18T20:54:20.955Z,56.60
2023-02-18T20:56:49.927Z,56.50
2023-02-18T20:59:19.277Z,56.46
2023-02-18T21:01:47.748Z,55.60
2023-02-18T21:04:17.311Z,56.06
2023-02-18T21:06:44.441Z,56.70
2023-02-18T21:09:11.644Z,56.80
2023-02-18T21:11:38.375Z,56.56
2023-02-18T21:14:04.852Z,57.57
2023-02-18T21:16:31.722Z,57.21
2023-02-18T21:18:59.110Z,56.93
2023-02-18T21:21:26.532Z,57.05
2023-02-18T21:23:53.330Z,57.81
2023-02-18T21:26:22.810Z,57.05
2023-02-18T21:28:52.752Z,57.09
2023-02-18T21:31:31.084Z,58.24
2023-02-18T21:33:57.966Z,57.83
2023-02-18T21:36:26.180Z,58.24
2023-02-18T21:38:54.694Z,57.81
2023-02-18T21:41:21.583Z,57.74
2023-02-18T21:43:48.659Z,57.80
2023-02-18T21:46:21.932Z,58.25
2023-02-18T21:48:48.980Z,58.74
2023-02-18T21:51:15.623Z,58.12
2023-02-18T21:53:42.097Z,59.38
2023-02-18T21:56:10.861Z,59.37
2023-02-18T21:58:37.345Z,59.18
2023-02-18T22:01:03.935Z,59.11
2023-02-18T22:03:32.296Z,60.25
2023-02-18T22:05:58.822Z,61.15
2023-02-18T22:08:25.327Z,60.53
2023-02-18T22:10:51.783Z,60.45
2023-02-18T22:13:18.275Z,60.70
2023-02-18T22:15:44.729Z,60.02
2023-02-18T22:18:11.229Z,60.87
2023-02-18T22:20:38.638Z,60.10
2023-02-18T22:23:05.079Z,61.00
2023-02-18T22:25:31.556Z,59.97
2023-02-18T22:27:58.068Z,60.25
2023-02-18T22:30:24.658Z,60.45
2023-02-18T22:32:51.201Z,60.08
2023-02-18T22:35:17.748Z,61.01
2023-02-18T22:37:44.200Z,61.39
2023-02-18T22:40:11.035Z,61.00
2023-02-18T22:42:37.594Z,61.26
2023-02-18T22:45:04.300Z,63.20
2023-02-18T22:47:30.818Z,61.91
2023-02-18T22:49:57.488Z,61.67
2023-02-18T22:52:24.021Z,61.36
2023-02-18T22:54:50.463Z,61.71
2023-02-18T22:57:16.986Z,61.81
2023-02-18T22:59:43.429Z,62.20
2023-02-18T23:02:10.059Z,62.28
2023-02-18T23:04:39.096Z,62.05
2023-02-18T23:07:05.668Z,62.54
2023-02-18T23:09:32.332Z,61.93
2023-02-18T23:11:58.990Z,62.15
2023-02-18T23:14:26.769Z,62.52
2023-02-18T23:17:03.662Z,62.22
2023-02-18T23:19:32.343Z,64.07
2023-02-18T23:21:58.897Z,66.26
2023-02-18T23:24:25.842Z,65.88
2023-02-18T23:26:52.756Z,66.24
2023-02-18T23:29:20.358Z,66.83
2023-02-18T23:31:46.946Z,67.44
2023-02-18T23:34:15.615Z,67.41
2023-02-18T23:36:43.292Z,67.14
2023-02-18T23:39:11.388Z,66.03
2023-02-18T23:41:37.920Z,64.74
2023-02-18T23:44:06.595Z,65.46
2023-02-18T23:46:33.732Z,65.44
2023-02-18T23:49:01.357Z,64.40
2023-02-18T23:51:27.881Z,64.19
2023-02-18T23:53:54.371Z,62.84
2023-02-18T23:56:26.147Z,64.80
2023-02-18T23:58:57.924Z,63.17
